Time;durP1;ratioP1;P1;durP2;ratioP2;P2;SDS_P1;SDS_P2;PMS_P1;PMS_P2;Temp;Humidity;BMP_temperature;BMP_pressure;BME280_temperature;BME280_humidity;BME280_pressure;Samples;Min_cycle;Max_cycle;Signal;HPM_P1;HPM_P2
2021/11/19 00:01:45;;;;;;;18.70;13.40;;;;;;;;;;5051421;28;20492;-63
2021/11/19 00:04:11;;;;;;;14.73;10.87;;;;;;;;;;5053943;28;20422;-63
2021/11/19 00:06:38;;;;;;;18.00;12.53;;;;;;;;;;5049795;28;20455;-63
2021/11/19 00:09:05;;;;;;;18.67;13.10;;;;;;;;;;5034078;28;20417;-63
2021/11/19 00:11:34;;;;;;;17.47;11.60;;;;;;;;;;5045640;28;20974;-64
2021/11/19 00:14:01;;;;;;;17.27;12.20;;;;;;;;;;5036296;28;21035;-63
2021/11/19 00:16:27;;;;;;;16.70;12.83;;;;;;;;;;5033884;28;20423;-63
2021/11/19 00:18:54;;;;;;;16.97;12.60;;;;;;;;;;5035848;28;20820;-63
2021/11/19 00:21:21;;;;;;;16.60;11.90;;;;;;;;;;5042550;28;20409;-63
2021/11/19 00:23:47;;;;;;;19.20;13.03;;;;;;;;;;5053165;28;20405;-63
2021/11/19 00:26:13;;;;;;;17.77;13.37;;;;;;;;;;5050165;28;20448;-63
2021/11/19 00:28:40;;;;;;;17.50;13.20;;;;;;;;;;5034055;28;20403;-64
2021/11/19 00:31:07;;;;;;;18.53;13.00;;;;;;;;;;5043290;28;20426;-63
2021/11/19 00:33:34;;;;;;;15.43;11.73;;;;;;;;;;5052774;28;21019;-64
2021/11/19 00:36:01;;;;;;;18.50;12.20;;;;;;;;;;5051646;28;20396;-64
2021/11/19 00:38:28;;;;;;;17.20;11.70;;;;;;;;;;5051403;28;20405;-64
2021/11/19 00:40:59;;;;;;;17.23;12.20;;;;;;;;;;5052786;28;20390;-64
2021/11/19 00:43:25;;;;;;;16.70;12.23;;;;;;;;;;5052619;28;20408;-65
2021/11/19 00:45:52;;;;;;;14.77;10.43;;;;;;;;;;5052547;28;20926;-65
2021/11/19 00:48:20;;;;;;;11.93;9.87;;;;;;;;;;5046906;28;20410;-64
2021/11/19 00:50:55;;;;;;;13.10;10.77;;;;;;;;;;5041951;28;20919;-63
2021/11/19 00:53:21;;;;;;;14.70;10.90;;;;;;;;;;5044785;28;20449;-66
2021/11/19 00:55:47;;;;;;;12.70;9.87;;;;;;;;;;5036503;28;20451;-65
2021/11/19 00:58:14;;;;;;;15.03;11.13;;;;;;;;;;5038411;28;20424;-64
2021/11/19 01:00:45;;;;;;;16.37;11.80;;;;;;;;;;5052698;28;20815;-64
2021/11/19 01:03:12;;;;;;;15.57;11.57;;;;;;;;;;5051405;28;20402;-64
2021/11/19 01:05:38;;;;;;;15.57;11.20;;;;;;;;;;5052584;28;20520;-65
2021/11/19 01:08:05;;;;;;;16.40;12.23;;;;;;;;;;5048378;28;20431;-64
2021/11/19 01:10:32;;;;;;;17.13;11.87;;;;;;;;;;5032720;28;20452;-65
2021/11/19 01:12:59;;;;;;;15.87;11.13;;;;;;;;;;5032926;28;20525;-64
2021/11/19 01:15:28;;;;;;;17.93;11.53;;;;;;;;;;5046999;28;20414;-65
2021/11/19 01:17:56;;;;;;;16.87;12.10;;;;;;;;;;5048555;28;20811;-63
2021/11/19 01:20:25;;;;;;;16.93;12.40;;;;;;;;;;5046056;28;20941;-63
2021/11/19 01:22:52;;;;;;;16.77;11.30;;;;;;;;;;5052328;28;20406;-64
2021/11/19 01:25:19;;;;;;;14.70;10.90;;;;;;;;;;5049196;28;20481;-63
2021/11/19 01:27:45;;;;;;;15.20;11.67;;;;;;;;;;5051005;28;20436;-64
2021/11/19 01:30:14;;;;;;;19.33;12.67;;;;;;;;;;5052324;28;20476;-63
2021/11/19 01:32:40;;;;;;;16.97;12.23;;;;;;;;;;5052185;28;20526;-63
2021/11/19 01:35:07;;;;;;;16.00;10.63;;;;;;;;;;5051933;28;20456;-64
2021/11/19 01:37:34;;;;;;;15.93;12.57;;;;;;;;;;5039725;28;20487;-63
2021/11/19 01:40:01;;;;;;;17.70;13.00;;;;;;;;;;5052454;28;20519;-64
2021/11/19 01:42:33;;;;;;;17.93;12.83;;;;;;;;;;5052151;28;20437;-65
2021/11/19 01:44:59;;;;;;;18.53;12.67;;;;;;;;;;5036446;28;20460;-64
2021/11/19 01:47:25;;;;;;;18.93;12.83;;;;;;;;;;5044737;28;20435;-63
2021/11/19 01:49:52;;;;;;;18.23;12.80;;;;;;;;;;5032719;28;20812;-66
2021/11/19 01:52:20;;;;;;;22.10;14.40;;;;;;;;;;5032136;28;20812;-64
2021/11/19 01:54:51;;;;;;;21.07;13.93;;;;;;;;;;5035019;28;20410;-63
2021/11/19 01:57:26;;;;;;;21.13;12.50;;;;;;;;;;5038400;28;20834;-63
2021/11/19 01:59:52;;;;;;;19.70;13.30;;;;;;;;;;5037684;28;20909;-63
2021/11/19 02:02:38;;;;;;;18.53;12.57;;;;;;;;;;5051304;28;20445;-63
2021/11/19 02:05:08;;;;;;;19.90;13.23;;;;;;;;;;5043069;28;20449;-64
2021/11/19 02:07:35;;;;;;;18.83;12.90;;;;;;;;;;5040280;28;20489;-64
2021/11/19 02:10:05;;;;;;;18.23;13.10;;;;;;;;;;5052168;28;20401;-64
2021/11/19 02:12:49;;;;;;;17.80;12.67;;;;;;;;;;5051134;28;20457;-64
2021/11/19 02:15:23;;;;;;;17.23;12.90;;;;;;;;;;5055451;28;20927;-64
2021/11/19 02:17:51;;;;;;;18.07;13.23;;;;;;;;;;5054265;28;20430;-64
2021/11/19 02:20:21;;;;;;;17.90;13.17;;;;;;;;;;5055463;28;20394;-64
2021/11/19 02:22:49;;;;;;;19.77;13.73;;;;;;;;;;5050905;28;20967;-64
2021/11/19 02:25:17;;;;;;;17.50;12.47;;;;;;;;;;5035337;28;20406;-64
2021/11/19 02:27:47;;;;;;;19.83;13.33;;;;;;;;;;5036034;28;20796;-64
2021/11/19 02:30:15;;;;;;;18.80;13.93;;;;;;;;;;5055465;28;20822;-64
2021/11/19 02:32:44;;;;;;;16.07;11.63;;;;;;;;;;5049510;28;20906;-64
2021/11/19 02:35:12;;;;;;;15.40;12.00;;;;;;;;;;5038921;28;20903;-64
2021/11/19 02:37:41;;;;;;;16.43;12.27;;;;;;;;;;5041430;28;20453;-64
2021/11/19 02:40:11;;;;;;;15.57;11.80;;;;;;;;;;5049238;28;20422;-63
2021/11/19 02:42:39;;;;;;;22.27;14.60;;;;;;;;;;5047866;28;20793;-64
2021/11/19 02:45:10;;;;;;;18.93;13.13;;;;;;;;;;5035161;28;20409;-64
2021/11/19 02:47:37;;;;;;;16.90;12.97;;;;;;;;;;5041703;28;20473;-65
2021/11/19 02:50:04;;;;;;;17.57;13.47;;;;;;;;;;5043459;28;20461;-64
2021/11/19 02:52:32;;;;;;;17.30;12.67;;;;;;;;;;5040226;28;20455;-65
2021/11/19 02:54:59;;;;;;;17.10;12.83;;;;;;;;;;5043883;28;20540;-65
2021/11/19 02:57:25;;;;;;;18.60;12.63;;;;;;;;;;5037087;28;20470;-65
2021/11/19 02:59:52;;;;;;;15.27;11.90;;;;;;;;;;5048468;28;20418;-65
2021/11/19 03:02:22;;;;;;;17.57;12.60;;;;;;;;;;5041195;28;20480;-65
2021/11/19 03:04:53;;;;;;;18.00;13.53;;;;;;;;;;5044384;28;20434;-64
2021/11/19 03:07:20;;;;;;;17.50;13.40;;;;;;;;;;5047316;28;20458;-64
2021/11/19 03:09:48;;;;;;;16.07;10.93;;;;;;;;;;5053821;28;20481;-65
2021/11/19 03:12:15;;;;;;;13.80;11.17;;;;;;;;;;5040317;28;20430;-64
2021/11/19 03:14:42;;;;;;;16.17;12.07;;;;;;;;;;5054574;28;20405;-64
2021/11/19 03:17:10;;;;;;;17.47;11.67;;;;;;;;;;5039127;28;20973;-64
2021/11/19 03:19:36;;;;;;;16.97;13.03;;;;;;;;;;5034643;28;20472;-64
2021/11/19 03:22:03;;;;;;;18.20;12.73;;;;;;;;;;5035430;28;20398;-64
2021/11/19 03:24:29;;;;;;;16.23;11.50;;;;;;;;;;5034167;28;20519;-64
2021/11/19 03:26:55;;;;;;;17.50;11.40;;;;;;;;;;5044966;28;20441;-64
2021/11/19 03:29:23;;;;;;;16.23;13.10;;;;;;;;;;5054510;28;20929;-64
2021/11/19 03:31:50;;;;;;;15.10;11.77;;;;;;;;;;5054094;28;20421;-64
2021/11/19 03:34:17;;;;;;;17.40;12.20;;;;;;;;;;5052748;28;20481;-64
2021/11/19 03:36:45;;;;;;;14.90;11.50;;;;;;;;;;5048366;28;20434;-64
2021/11/19 03:39:12;;;;;;;19.33;13.53;;;;;;;;;;5054159;28;20954;-64
2021/11/19 03:41:39;;;;;;;15.00;11.30;;;;;;;;;;5048947;28;20441;-64
2021/11/19 03:44:11;;;;;;;15.90;11.97;;;;;;;;;;5053915;28;20963;-64
2021/11/19 03:46:39;;;;;;;16.10;12.50;;;;;;;;;;5039083;28;20431;-64
2021/11/19 03:49:06;;;;;;;15.63;12.33;;;;;;;;;;5052985;28;20418;-64
2021/11/19 03:51:34;;;;;;;16.27;12.67;;;;;;;;;;5038541;28;20410;-64
2021/11/19 03:54:00;;;;;;;17.17;12.17;;;;;;;;;;5034054;28;20443;-64
2021/11/19 03:56:26;;;;;;;16.70;11.80;;;;;;;;;;5042808;28;20442;-64
2021/11/19 03:58:53;;;;;;;14.83;11.10;;;;;;;;;;5054169;28;20442;-64
2021/11/19 04:01:27;;;;;;;13.83;9.60;;;;;;;;;;5038764;28;20880;-64
2021/11/19 04:03:53;;;;;;;16.60;11.30;;;;;;;;;;5052892;28;20421;-64
2021/11/19 04:06:20;;;;;;;15.90;11.53;;;;;;;;;;5052911;28;20449;-64
2021/11/19 04:08:46;;;;;;;15.37;10.73;;;;;;;;;;5053986;28;20823;-63
2021/11/19 04:11:13;;;;;;;14.00;11.33;;;;;;;;;;5049944;28;20922;-64
2021/11/19 04:13:39;;;;;;;17.03;12.00;;;;;;;;;;5051251;28;20449;-64
2021/11/19 04:16:09;;;;;;;14.90;11.67;;;;;;;;;;5039542;28;20423;-64
2021/11/19 04:18:36;;;;;;;14.27;10.50;;;;;;;;;;5033370;28;20424;-63
2021/11/19 04:21:02;;;;;;;14.50;11.20;;;;;;;;;;5034638;28;20418;-64
2021/11/19 04:23:28;;;;;;;16.63;11.50;;;;;;;;;;5052583;28;20480;-66
2021/11/19 04:25:56;;;;;;;17.50;12.23;;;;;;;;;;5038784;28;20403;-63
2021/11/19 04:28:22;;;;;;;16.73;11.80;;;;;;;;;;5033307;28;20415;-62
2021/11/19 04:30:49;;;;;;;15.00;11.10;;;;;;;;;;5033689;28;20414;-65
2021/11/19 04:33:15;;;;;;;15.80;11.27;;;;;;;;;;5038911;28;20985;-65
2021/11/19 04:35:41;;;;;;;14.70;10.70;;;;;;;;;;5039016;28;20407;-63
2021/11/19 04:38:07;;;;;;;14.70;10.43;;;;;;;;;;5033004;28;20418;-62
2021/11/19 04:40:35;;;;;;;19.00;9.50;;;;;;;;;;5034011;28;20463;-65
2021/11/19 04:43:01;;;;;;;14.17;10.03;;;;;;;;;;5033043;28;20395;-65
2021/11/19 04:45:28;;;;;;;14.03;9.23;;;;;;;;;;5038189;28;20427;-65
2021/11/19 04:47:55;;;;;;;13.83;9.80;;;;;;;;;;5033050;28;20414;-64
2021/11/19 04:50:23;;;;;;;11.70;9.70;;;;;;;;;;5033739;28;20493;-64
2021/11/19 04:52:49;;;;;;;14.13;11.57;;;;;;;;;;5048531;28;20785;-64
2021/11/19 04:55:16;;;;;;;16.93;11.03;;;;;;;;;;5051606;28;20476;-64
2021/11/19 04:57:43;;;;;;;14.83;10.30;;;;;;;;;;5052995;28;20505;-64
2021/11/19 05:00:12;;;;;;;17.23;10.40;;;;;;;;;;5038974;28;20457;-64
2021/11/19 05:02:38;;;;;;;15.33;10.33;;;;;;;;;;5033030;28;20407;-64
2021/11/19 05:05:05;;;;;;;16.00;10.30;;;;;;;;;;5056336;28;20421;-64
2021/11/19 05:07:31;;;;;;;14.83;10.60;;;;;;;;;;5052406;28;20507;-64
2021/11/19 05:09:57;;;;;;;14.20;11.30;;;;;;;;;;5033738;28;20414;-64
2021/11/19 05:12:26;;;;;;;16.50;10.90;;;;;;;;;;5032556;28;20403;-64
2021/11/19 05:14:52;;;;;;;13.10;9.80;;;;;;;;;;5033191;28;20605;-63
2021/11/19 05:17:22;;;;;;;14.37;10.50;;;;;;;;;;5052428;28;20434;-63
2021/11/19 05:19:48;;;;;;;16.10;11.53;;;;;;;;;;5042123;28;20406;-64
2021/11/19 05:22:14;;;;;;;16.53;11.40;;;;;;;;;;5034539;28;20398;-65
2021/11/19 05:24:41;;;;;;;16.27;11.17;;;;;;;;;;5045979;28;20402;-64
2021/11/19 05:27:07;;;;;;;16.57;11.30;;;;;;;;;;5051649;28;20453;-65
2021/11/19 05:29:33;;;;;;;16.70;11.13;;;;;;;;;;5032841;28;20413;-65
2021/11/19 05:31:59;;;;;;;16.37;11.30;;;;;;;;;;5032661;28;20471;-64
2021/11/19 05:34:26;;;;;;;14.43;11.07;;;;;;;;;;5044286;28;20549;-64
2021/11/19 05:36:52;;;;;;;14.63;10.00;;;;;;;;;;5052333;28;20503;-64
2021/11/19 05:39:19;;;;;;;18.77;11.03;;;;;;;;;;5052093;28;20405;-64
2021/11/19 05:41:45;;;;;;;14.57;10.63;;;;;;;;;;5052815;28;20401;-64
2021/11/19 05:44:11;;;;;;;16.23;11.80;;;;;;;;;;5051536;28;20412;-64
2021/11/19 05:46:41;;;;;;;14.40;10.97;;;;;;;;;;5051781;28;20840;-63
2021/11/19 05:49:08;;;;;;;20.70;12.20;;;;;;;;;;5054304;28;20410;-64
2021/11/19 05:51:34;;;;;;;15.23;11.53;;;;;;;;;;5055756;28;20899;-64
2021/11/19 05:54:01;;;;;;;17.10;12.10;;;;;;;;;;5055117;28;20511;-64
2021/11/19 05:56:27;;;;;;;15.67;11.67;;;;;;;;;;5055299;28;20422;-64
2021/11/19 05:58:53;;;;;;;20.90;11.73;;;;;;;;;;5055914;28;20821;-64
2021/11/19 06:01:20;;;;;;;17.40;11.80;;;;;;;;;;5055044;28;20405;-65
2021/11/19 06:03:47;;;;;;;19.07;11.63;;;;;;;;;;5055230;28;20412;-64
2021/11/19 06:06:14;;;;;;;17.47;12.37;;;;;;;;;;5055127;28;20437;-64
2021/11/19 06:08:41;;;;;;;19.97;12.80;;;;;;;;;;5055587;28;20423;-64
2021/11/19 06:11:09;;;;;;;15.53;12.53;;;;;;;;;;5055663;28;20782;-64
2021/11/19 06:13:38;;;;;;;17.17;11.60;;;;;;;;;;5045801;28;20556;-64
2021/11/19 06:16:06;;;;;;;16.40;11.60;;;;;;;;;;5037579;28;20440;-64
2021/11/19 06:18:34;;;;;;;16.97;12.37;;;;;;;;;;5054385;28;20828;-63
2021/11/19 06:21:03;;;;;;;19.47;12.60;;;;;;;;;;5035346;28;20402;-63
2021/11/19 06:23:34;;;;;;;19.23;12.57;;;;;;;;;;5051039;28;20430;-64
2021/11/19 06:26:01;;;;;;;22.13;12.37;;;;;;;;;;5036288;28;20811;-64
2021/11/19 06:28:29;;;;;;;17.87;13.30;;;;;;;;;;5035470;28;20399;-64
2021/11/19 06:30:56;;;;;;;17.90;13.30;;;;;;;;;;5052295;28;20418;-65
2021/11/19 06:33:22;;;;;;;18.90;11.50;;;;;;;;;;5044013;28;20512;-63
2021/11/19 06:35:49;;;;;;;16.80;12.20;;;;;;;;;;5036848;28;20410;-63
2021/11/19 06:38:15;;;;;;;18.00;13.10;;;;;;;;;;5055167;28;20405;-64
2021/11/19 06:40:41;;;;;;;18.80;12.30;;;;;;;;;;5055552;28;20456;-66
2021/11/19 06:43:08;;;;;;;16.50;11.90;;;;;;;;;;5044460;28;20418;-64
2021/11/19 06:45:35;;;;;;;17.93;12.20;;;;;;;;;;5036183;28;20407;-63
2021/11/19 06:48:04;;;;;;;18.57;11.63;;;;;;;;;;5035167;28;20433;-64
2021/11/19 06:50:31;;;;;;;17.63;11.50;;;;;;;;;;5038653;28;20441;-63
2021/11/19 06:52:57;;;;;;;17.43;11.70;;;;;;;;;;5053586;28;20453;-63
2021/11/19 06:55:23;;;;;;;23.80;11.13;;;;;;;;;;5054485;28;20828;-62
2021/11/19 06:57:49;;;;;;;17.30;12.10;;;;;;;;;;5055990;28;20803;-72
2021/11/19 07:00:24;;;;;;;14.10;10.63;;;;;;;;;;5049879;28;20415;-67
2021/11/19 07:02:50;;;;;;;11.87;10.30;;;;;;;;;;5060918;28;20424;-64
2021/11/19 07:05:16;;;;;;;18.63;13.00;;;;;;;;;;5056520;28;20568;-64
2021/11/19 07:07:43;;;;;;;16.07;10.00;;;;;;;;;;5058953;28;20450;-64
2021/11/19 07:10:10;;;;;;;15.17;10.10;;;;;;;;;;5064798;28;20489;-65
2021/11/19 07:12:36;;;;;;;12.37;10.37;;;;;;;;;;5067232;28;20511;-64
2021/11/19 07:15:06;;;;;;;16.97;9.97;;;;;;;;;;5066866;28;20410;-65
2021/11/19 07:17:32;;;;;;;15.27;10.50;;;;;;;;;;5049222;28;20423;-63
2021/11/19 07:19:59;;;;;;;13.80;10.07;;;;;;;;;;5046909;28;20411;-65
2021/11/19 07:22:25;;;;;;;20.20;11.43;;;;;;;;;;5051155;28;20502;-64
2021/11/19 07:24:52;;;;;;;17.60;10.00;;;;;;;;;;5044190;28;20407;-62
2021/11/19 07:27:19;;;;;;;17.40;10.47;;;;;;;;;;5044889;28;20458;-64
2021/11/19 07:29:46;;;;;;;16.27;11.90;;;;;;;;;;5061044;28;20442;-64
2021/11/19 07:32:12;;;;;;;17.10;12.13;;;;;;;;;;5062669;28;20414;-69
2021/11/19 07:34:38;;;;;;;14.90;10.43;;;;;;;;;;5055563;28;20406;-63
2021/11/19 07:37:04;;;;;;;13.17;10.00;;;;;;;;;;5054097;28;20437;-66
2021/11/19 07:39:30;;;;;;;14.20;11.00;;;;;;;;;;5054360;28;20767;-66
2021/11/19 07:41:57;;;;;;;12.73;9.77;;;;;;;;;;5051896;28;20413;-70
2021/11/19 07:44:23;;;;;;;13.37;10.23;;;;;;;;;;5054751;28;20413;-68
2021/11/19 07:46:49;;;;;;;17.70;10.87;;;;;;;;;;5050884;28;20448;-68
2021/11/19 07:49:15;;;;;;;17.40;11.03;;;;;;;;;;5052969;28;20421;-70
2021/11/19 07:51:44;;;;;;;16.07;10.30;;;;;;;;;;5053169;28;20747;-68
2021/11/19 07:54:11;;;;;;;19.53;11.53;;;;;;;;;;5055246;28;20449;-69
2021/11/19 07:56:38;;;;;;;19.70;11.77;;;;;;;;;;5054198;28;20437;-67
2021/11/19 07:59:18;;;;;;;15.83;10.27;;;;;;;;;;5046005;28;20421;-68
2021/11/19 08:01:44;;;;;;;16.90;9.60;;;;;;;;;;5048245;28;20946;-67
2021/11/19 08:04:10;;;;;;;16.83;9.70;;;;;;;;;;5045969;28;20418;-67
2021/11/19 08:06:36;;;;;;;8.53;7.60;;;;;;;;;;5043705;28;20465;-67
2021/11/19 08:09:03;;;;;;;11.03;8.00;;;;;;;;;;5048463;28;20425;-67
2021/11/19 08:11:29;;;;;;;10.27;8.87;;;;;;;;;;5043356;28;20961;-63
2021/11/19 08:13:56;;;;;;;13.00;8.40;;;;;;;;;;5058932;28;20816;-64
2021/11/19 08:16:22;;;;;;;13.67;9.37;;;;;;;;;;5059614;28;20527;-66
2021/11/19 08:18:51;;;;;;;12.53;8.13;;;;;;;;;;5056063;28;20765;-64
2021/11/19 08:21:17;;;;;;;12.20;8.50;;;;;;;;;;5043594;28;20445;-67
2021/11/19 08:23:46;;;;;;;12.10;8.93;;;;;;;;;;5056271;28;20497;-63
2021/11/19 08:26:17;;;;;;;12.17;8.30;;;;;;;;;;5049872;28;20430;-63
2021/11/19 08:28:44;;;;;;;11.77;7.50;;;;;;;;;;5053752;28;20507;-63
2021/11/19 08:31:12;;;;;;;11.23;8.63;;;;;;;;;;5053136;28;20985;-62
2021/11/19 08:33:39;;;;;;;16.23;7.53;;;;;;;;;;5049519;28;20457;-62
2021/11/19 08:36:06;;;;;;;12.00;7.73;;;;;;;;;;5060756;28;20409;-62
2021/11/19 08:38:32;;;;;;;13.20;8.97;;;;;;;;;;5053251;28;20403;-63
2021/11/19 08:40:58;;;;;;;13.93;8.37;;;;;;;;;;5053520;28;20410;-67
2021/11/19 08:43:27;;;;;;;11.47;8.30;;;;;;;;;;5054844;28;20418;-67
2021/11/19 08:45:54;;;;;;;14.60;9.10;;;;;;;;;;5047906;28;20410;-66
2021/11/19 08:48:21;;;;;;;11.50;8.70;;;;;;;;;;5047044;28;20430;-69
2021/11/19 08:50:47;;;;;;;13.90;8.30;;;;;;;;;;5046707;28;20428;-67
2021/11/19 08:53:14;;;;;;;10.53;8.10;;;;;;;;;;5050322;28;20479;-65
2021/11/19 08:55:45;;;;;;;10.43;7.93;;;;;;;;;;5057731;28;20420;-67
2021/11/19 08:58:17;;;;;;;16.00;8.30;;;;;;;;;;5045483;28;20449;-65
2021/11/19 09:00:43;;;;;;;14.87;8.50;;;;;;;;;;5047813;28;20448;-67
2021/11/19 09:03:10;;;;;;;15.27;9.50;;;;;;;;;;5043585;28;20502;-71
2021/11/19 09:05:37;;;;;;;12.20;8.87;;;;;;;;;;5054725;28;20422;-69
2021/11/19 09:08:04;;;;;;;15.33;8.90;;;;;;;;;;5041512;28;20439;-68
2021/11/19 09:10:31;;;;;;;15.73;9.33;;;;;;;;;;5038803;28;20410;-70
2021/11/19 09:12:57;;;;;;;21.50;9.70;;;;;;;;;;5036815;28;20461;-72
2021/11/19 09:15:23;;;;;;;12.17;8.73;;;;;;;;;;5044914;28;20410;-73
2021/11/19 09:18:12;;;;;;;13.27;7.13;;;;;;;;;;5050525;28;20429;-69
2021/11/19 09:20:44;;;;;;;12.10;7.60;;;;;;;;;;5046551;28;20475;-69
2021/11/19 09:23:10;;;;;;;9.47;6.87;;;;;;;;;;5046511;28;20428;-70
2021/11/19 09:25:37;;;;;;;9.60;7.30;;;;;;;;;;5042305;28;20499;-69
2021/11/19 09:28:04;;;;;;;10.97;7.10;;;;;;;;;;5052470;28;20830;-73
2021/11/19 09:30:36;;;;;;;8.40;6.00;;;;;;;;;;5050808;28;20414;-73
2021/11/19 09:33:04;;;;;;;10.00;6.17;;;;;;;;;;5047334;28;21011;-70
2021/11/19 09:35:30;;;;;;;8.70;6.37;;;;;;;;;;5050029;28;20410;-70
2021/11/19 09:37:56;;;;;;;6.90;4.63;;;;;;;;;;5039787;28;20521;-72
2021/11/19 09:40:34;;;;;;;10.00;6.57;;;;;;;;;;5050752;28;20432;-74
2021/11/19 09:43:17;;;;;;;6.90;5.33;;;;;;;;;;5041570;28;20414;-73
2021/11/19 09:46:13;;;;;;;8.20;6.23;;;;;;;;;;5047116;28;20406;-71
2021/11/19 09:49:05;;;;;;;6.80;5.33;;;;;;;;;;5040428;28;20475;-70
2021/11/19 09:51:35;;;;;;;6.83;6.07;;;;;;;;;;5046098;28;20545;-71
2021/11/19 09:54:12;;;;;;;8.77;6.70;;;;;;;;;;5047231;28;20457;-68
2021/11/19 09:56:52;;;;;;;7.60;6.40;;;;;;;;;;5047062;28;20939;-69
2021/11/19 09:59:37;;;;;;;13.17;7.13;;;;;;;;;;5046045;28;20418;-69
2021/11/19 10:02:06;;;;;;;9.10;7.70;;;;;;;;;;5062165;28;20536;-70
2021/11/19 10:04:38;;;;;;;10.50;8.27;;;;;;;;;;5049354;28;20417;-68
2021/11/19 10:07:26;;;;;;;12.90;8.87;;;;;;;;;;5049976;28;20480;-67
2021/11/19 10:09:58;;;;;;;10.33;8.53;;;;;;;;;;5050438;28;20776;-69
2021/11/19 10:12:30;;;;;;;12.23;9.13;;;;;;;;;;5045227;28;20419;-69
2021/11/19 10:14:58;;;;;;;12.23;8.87;;;;;;;;;;5051084;28;20497;-73
2021/11/19 10:17:43;;;;;;;11.80;10.03;;;;;;;;;;5040066;28;20587;-66
2021/11/19 10:20:29;;;;;;;23.17;9.67;;;;;;;;;;5051125;28;20445;-68
2021/11/19 10:22:59;;;;;;;17.17;10.30;;;;;;;;;;5049272;28;20462;-67
2021/11/19 10:25:34;;;;;;;13.87;11.10;;;;;;;;;;5042282;28;22024;-64
2021/11/19 10:28:04;;;;;;;13.00;10.17;;;;;;;;;;5050595;28;20448;-67
2021/11/19 10:30:37;;;;;;;14.40;11.23;;;;;;;;;;5033736;28;20503;-63
2021/11/19 10:33:06;;;;;;;12.07;9.97;;;;;;;;;;5050290;28;20467;-64
2021/11/19 10:35:59;;;;;;;16.13;11.60;;;;;;;;;;5048947;28;20430;-66
2021/11/19 10:38:28;;;;;;;20.43;11.40;;;;;;;;;;5046173;28;20826;-62
2021/11/19 10:41:20;;;;;;;15.03;11.37;;;;;;;;;;5051839;28;20933;-67
2021/11/19 10:43:51;;;;;;;14.97;10.80;;;;;;;;;;5054214;28;20836;-64
2021/11/19 10:46:28;;;;;;;16.17;11.17;;;;;;;;;;5049219;28;20439;-63
2021/11/19 10:48:54;;;;;;;17.80;11.80;;;;;;;;;;5055811;28;20508;-65
2021/11/19 10:51:29;;;;;;;16.53;11.33;;;;;;;;;;5049743;28;20834;-63
2021/11/19 10:54:14;;;;;;;15.63;9.77;;;;;;;;;;5050915;28;20941;-64
2021/11/19 10:56:59;;;;;;;17.97;11.57;;;;;;;;;;5041745;28;20495;-64
2021/11/19 10:59:27;;;;;;;20.50;11.90;;;;;;;;;;5045497;28;20445;-64
2021/11/19 11:02:03;;;;;;;15.53;11.10;;;;;;;;;;5057276;28;20500;-65
2021/11/19 11:04:30;;;;;;;15.00;11.23;;;;;;;;;;5059476;28;20982;-63
2021/11/19 11:07:14;;;;;;;16.80;11.00;;;;;;;;;;5042595;28;20997;-65
2021/11/19 11:09:44;;;;;;;15.03;11.00;;;;;;;;;;5048242;28;20767;-63
2021/11/19 11:12:28;;;;;;;15.00;12.27;;;;;;;;;;5047900;28;20429;-64
2021/11/19 11:15:13;;;;;;;17.83;11.27;;;;;;;;;;5045210;28;20433;-67
2021/11/19 11:17:50;;;;;;;17.27;12.17;;;;;;;;;;5043878;28;20421;-64
2021/11/19 11:20:25;;;;;;;14.90;9.97;;;;;;;;;;5045033;28;20505;-63
2021/11/19 11:22:53;;;;;;;14.83;11.30;;;;;;;;;;5041511;28;20420;-65
2021/11/19 11:25:37;;;;;;;16.57;12.60;;;;;;;;;;5049269;28;20462;-64
2021/11/19 11:28:03;;;;;;;15.70;11.20;;;;;;;;;;5053127;28;20516;-65
2021/11/19 11:30:52;;;;;;;12.63;9.80;;;;;;;;;;5035808;28;21006;-63
2021/11/19 11:33:31;;;;;;;14.07;10.63;;;;;;;;;;5038814;28;20466;-63
2021/11/19 11:36:11;;;;;;;16.43;10.90;;;;;;;;;;5037523;28;20929;-64
2021/11/19 11:38:51;;;;;;;14.80;11.40;;;;;;;;;;5041217;28;20479;-69
2021/11/19 11:41:20;;;;;;;13.17;9.10;;;;;;;;;;5043887;28;20423;-63
2021/11/19 11:44:03;;;;;;;12.63;9.53;;;;;;;;;;5044201;28;20418;-61
2021/11/19 11:46:29;;;;;;;12.40;9.13;;;;;;;;;;5050620;28;20449;-64
2021/11/19 11:48:58;;;;;;;8.50;7.43;;;;;;;;;;5053565;28;20780;-65
2021/11/19 11:51:26;;;;;;;15.53;10.50;;;;;;;;;;5049928;28;20426;-65
2021/11/19 11:54:11;;;;;;;12.93;9.40;;;;;;;;;;5033213;28;20457;-65
2021/11/19 11:56:42;;;;;;;10.10;7.60;;;;;;;;;;5041106;28;20516;-63
2021/11/19 11:59:11;;;;;;;11.13;8.83;;;;;;;;;;5052755;28;20386;-64
2021/11/19 12:01:54;;;;;;;9.07;7.00;;;;;;;;;;5051306;28;20413;-65
2021/11/19 12:04:29;;;;;;;8.90;6.50;;;;;;;;;;5050682;28;20489;-66
2021/11/19 12:07:04;;;;;;;11.20;7.33;;;;;;;;;;5051877;28;20448;-67
2021/11/19 12:09:36;;;;;;;8.83;6.80;;;;;;;;;;5053178;28;20546;-66
2021/11/19 12:12:14;;;;;;;8.47;6.27;;;;;;;;;;5041191;28;20770;-63
2021/11/19 12:14:40;;;;;;;8.83;6.00;;;;;;;;;;5033720;28;20453;-61
2021/11/19 12:17:06;;;;;;;11.40;5.83;;;;;;;;;;5036816;28;20436;-64
2021/11/19 12:19:32;;;;;;;9.30;6.03;;;;;;;;;;5052295;28;20402;-65
2021/11/19 12:22:01;;;;;;;7.53;6.53;;;;;;;;;;5038977;28;20500;-63
2021/11/19 12:24:36;;;;;;;10.60;5.50;;;;;;;;;;5049485;28;20398;-64
2021/11/19 12:27:03;;;;;;;6.63;5.00;;;;;;;;;;5035262;28;20466;-64
2021/11/19 12:30:01;;;;;;;6.17;4.97;;;;;;;;;;5032972;28;20418;-64
2021/11/19 12:32:32;;;;;;;9.30;5.70;;;;;;;;;;5029158;28;20425;-66
2021/11/19 12:34:58;;;;;;;6.37;4.87;;;;;;;;;;5044938;28;20480;-66
2021/11/19 12:37:27;;;;;;;6.30;4.77;;;;;;;;;;5049933;28;20434;-66
2021/11/19 12:39:54;;;;;;;7.30;5.40;;;;;;;;;;5053840;28;20409;-65
2021/11/19 12:42:26;;;;;;;6.50;4.87;;;;;;;;;;5051740;28;20418;-64
2021/11/19 12:44:58;;;;;;;9.90;5.50;;;;;;;;;;5043124;28;20394;-64
2021/11/19 12:47:43;;;;;;;8.90;5.70;;;;;;;;;;5043842;28;20437;-65
2021/11/19 12:50:09;;;;;;;6.40;5.03;;;;;;;;;;5048567;28;20433;-63
2021/11/19 12:52:38;;;;;;;7.40;4.20;;;;;;;;;;5045741;28;20765;-64
2021/11/19 12:55:13;;;;;;;7.60;5.00;;;;;;;;;;5041525;28;20434;-64
2021/11/19 12:57:42;;;;;;;6.40;4.93;;;;;;;;;;5045713;28;20446;-65
2021/11/19 13:00:11;;;;;;;7.17;4.00;;;;;;;;;;5049352;28;20417;-64
2021/11/19 13:02:45;;;;;;;5.30;3.60;;;;;;;;;;5051772;28;20413;-63
2021/11/19 13:05:24;;;;;;;5.03;3.43;;;;;;;;;;5037046;28;20406;-64
2021/11/19 13:08:00;;;;;;;5.90;4.17;;;;;;;;;;5043009;28;20461;-65
2021/11/19 13:10:26;;;;;;;7.17;3.93;;;;;;;;;;5041794;28;20405;-64
2021/11/19 13:12:58;;;;;;;5.07;3.70;;;;;;;;;;5049432;28;20544;-63
2021/11/19 13:15:24;;;;;;;6.17;4.33;;;;;;;;;;5033984;28;20434;-66
2021/11/19 13:17:56;;;;;;;4.67;3.40;;;;;;;;;;5039902;28;20440;-63
2021/11/19 13:20:34;;;;;;;4.10;3.07;;;;;;;;;;5040586;28;20441;-63
2021/11/19 13:23:20;;;;;;;6.97;4.33;;;;;;;;;;5038633;28;20504;-66
2021/11/19 13:25:47;;;;;;;4.00;2.83;;;;;;;;;;5031855;28;20405;-63
2021/11/19 13:28:33;;;;;;;5.50;3.70;;;;;;;;;;5034699;28;20433;-63
2021/11/19 13:31:19;;;;;;;5.00;3.63;;;;;;;;;;5049339;28;20421;-61
2021/11/19 13:34:04;;;;;;;6.13;3.40;;;;;;;;;;5043473;28;20457;-63
2021/11/19 13:36:47;;;;;;;4.70;3.07;;;;;;;;;;5040103;28;20429;-63
2021/11/19 13:39:16;;;;;;;4.63;3.00;;;;;;;;;;5047735;28;20417;-62
2021/11/19 13:41:48;;;;;;;3.40;3.10;;;;;;;;;;5052124;28;20406;-62
2021/11/19 13:44:33;;;;;;;5.37;3.50;;;;;;;;;;5042805;28;20775;-62
2021/11/19 13:47:19;;;;;;;6.00;3.33;;;;;;;;;;5031526;28;20500;-64
2021/11/19 13:49:47;;;;;;;4.70;3.53;;;;;;;;;;5044677;28;20410;-63
2021/11/19 13:52:23;;;;;;;5.03;3.17;;;;;;;;;;5032188;28;20398;-64
2021/11/19 13:54:49;;;;;;;6.70;3.37;;;;;;;;;;5044486;28;20405;-63
2021/11/19 13:57:18;;;;;;;7.10;2.97;;;;;;;;;;5051900;28;20819;-64
2021/11/19 13:59:44;;;;;;;5.60;3.40;;;;;;;;;;5044458;28;20403;-62
2021/11/19 14:02:19;;;;;;;4.70;2.80;;;;;;;;;;5032171;28;20403;-63
2021/11/19 14:04:51;;;;;;;4.30;3.40;;;;;;;;;;5046807;28;20443;-67
2021/11/19 14:07:17;;;;;;;4.10;3.37;;;;;;;;;;5053156;28;20939;-65
2021/11/19 14:09:43;;;;;;;6.30;3.00;;;;;;;;;;5052080;28;20417;-68
2021/11/19 14:12:18;;;;;;;4.30;2.70;;;;;;;;;;5035386;28;20911;-65
2021/11/19 14:14:45;;;;;;;7.87;2.90;;;;;;;;;;5036443;28;20456;-64
2021/11/19 14:17:12;;;;;;;4.40;2.83;;;;;;;;;;5048304;28;20514;-64
2021/11/19 14:22:22;;;;;;;3.40;3.10;;;;;;;;;;5053432;28;20437;-64
2021/11/19 14:24:57;;;;;;;3.80;2.77;;;;;;;;;;5035766;28;20493;-64
2021/11/19 14:27:30;;;;;;;4.60;3.10;;;;;;;;;;5039316;28;20433;-64
2021/11/19 14:29:58;;;;;;;6.87;3.30;;;;;;;;;;5040081;28;20452;-64
2021/11/19 14:32:24;;;;;;;4.20;2.73;;;;;;;;;;5054073;28;20880;-65
2021/11/19 14:34:53;;;;;;;5.63;3.30;;;;;;;;;;5054573;28;20422;-64
2021/11/19 14:37:20;;;;;;;5.13;3.03;;;;;;;;;;5055178;28;20417;-62
2021/11/19 14:39:47;;;;;;;6.93;3.60;;;;;;;;;;5052827;28;20441;-64
2021/11/19 14:42:15;;;;;;;3.67;2.87;;;;;;;;;;5037328;28;20406;-63
2021/11/19 14:44:43;;;;;;;5.20;2.87;;;;;;;;;;5036073;28;20402;-64